Airfield :
LOGIN :

Register | Disclaimer

   EN    FR    IT 

 










Legend :    VFR   Marginal VFR   IFR   Intensive IFR   Very Intensive IFR
Visi :
Ceiling :
>= 8 km
>= 3000ft
5 to 8 km
1000 to 3000 ft
1500m to 5 km
500 to 1000 ft
800 to 1500m
200 to 500 ft
< 800m
< 200 ft
Symbols :   Thunderstorms  Fog  Heavy snow  Heavy precipitations  Wind > 20 kt
SIGMETs :     Misc.  Thunderstorms  Icing  Turbulence  Mountain Waves  Volcanic Ashes






- Airport Elevation : 598 ft
- IATA code : BQH


EGKB - Biggin Hill

CURRENT METAR :
  • 100950Z 19023G33KT 9999 VCSH SCT015 BKN024 08/06 Q1017

EXPIRED METARs :
  • 100920Z 19023KT 9999 SCT015 BKN025 07/06 Q1017
  • 100850Z 19023KT 9000 SCT015 SCT025 07/05 Q1018
  • 100820Z 19020KT 9999 SCT015 06/04 Q1018
  • 100750Z 19016KT 9999 FEW015 05/03 Q1019

TAF AMD TAF EGKB
Valid from the 10 at 09:00 until the 10 at 18:00 UTC


100911Z 1009/1018 19015G25KT 9999 FEW030
TEMPO 1009/1018 7000 RA BKN014
TEMPO 1010/1012 20020G35KT
BECMG 1012/1015 20020G38KT
PROB30
TEMPO 1017/1018 23025G43KT 3000 +RA



MET'MAP, your aeronautical weather chart ! - Copyright ORBIFLY December 2007 - Disclaimer

ORBIFLY MET'MAP TEAM :

Programming & Development : Alexandra Zaïnal
Concept & original design : Baudouin d'Aumeries
Assistance for programming : Marc-Olivier Méhu
Technical & hardware support : Manuel Goepfert

Contact : metmap@orbifly.com




SOURCES & CREDITS :

   NOAA